Time;durP1;ratioP1;P1;durP2;ratioP2;P2;SDS_P1;SDS_P2;PMS_P1;PMS_P2;Temp;Humidity;BMP_temperature;BMP_pressure;BME280_temperature;BME280_humidity;BME280_pressure;Samples;Min_cycle;Max_cycle;Signal;HPM_P1;HPM_P2
2022/03/06 00:01:21;;;;;;;0.10;0.10;;;1.50;1.00;226.50;231333.00;;;;5027003;28;20195;-73
2022/03/06 00:03:50;;;;;;;0.10;0.10;;;1.40;1.00;226.50;231333.00;;;;5022434;28;20223;-75
2022/03/06 00:06:18;;;;;;;0.10;0.10;;;1.40;1.00;226.50;231333.00;;;;5023986;28;20215;-72
2022/03/06 00:08:46;;;;;;;0.10;0.10;;;1.40;1.00;226.50;231333.00;;;;5030189;28;20284;-72
2022/03/06 00:11:14;;;;;;;0.10;0.10;;;1.40;1.00;226.50;231333.00;;;;5030197;28;20200;-73
2022/03/06 00:13:44;;;;;;;0.00;0.00;;;1.40;1.00;226.50;231333.00;;;;5025361;28;20196;-73
2022/03/06 00:16:12;;;;;;;0.10;0.10;;;1.40;1.00;226.50;231333.00;;;;5009424;28;20223;-73
2022/03/06 00:18:40;;;;;;;0.10;0.10;;;1.40;1.00;226.50;231333.00;;;;5015530;28;20207;-73
2022/03/06 00:21:09;;;;;;;0.10;0.10;;;1.40;1.00;226.50;231333.00;;;;5020516;28;20619;-73
2022/03/06 00:23:37;;;;;;;0.10;0.10;;;1.40;1.00;226.50;231333.00;;;;5017394;28;20200;-73
2022/03/06 00:26:07;;;;;;;0.10;0.10;;;1.30;1.00;226.50;231333.00;;;;5041538;23;20284;-72
2022/03/06 00:28:35;;;;;;;0.10;0.10;;;1.10;99.90;226.50;231333.00;;;;5030528;28;20226;-70
2022/03/06 00:31:05;;;;;;;0.10;0.10;;;1.00;1.00;226.50;231333.00;;;;5030747;28;22276;-72
2022/03/06 00:33:33;;;;;;;0.20;0.20;;;1.00;1.00;226.50;231333.00;;;;5030117;28;20199;-70
2022/03/06 00:36:01;;;;;;;0.10;0.10;;;1.10;1.00;226.50;231333.00;;;;5029293;28;20225;-69
2022/03/06 00:38:29;;;;;;;0.10;0.10;;;1.10;1.00;226.50;231333.00;;;;5010656;28;20215;-69
2022/03/06 00:40:58;;;;;;;0.10;0.10;;;1.00;1.00;226.50;231333.00;;;;5006731;28;20227;-69
2022/03/06 00:43:26;;;;;;;0.10;0.10;;;1.00;1.00;226.50;231333.00;;;;5008034;28;20254;-69
2022/03/06 00:45:54;;;;;;;0.10;0.10;;;1.00;1.00;226.50;231333.00;;;;5010144;28;20261;-70
2022/03/06 00:48:24;;;;;;;0.10;0.10;;;1.00;1.00;226.50;231333.00;;;;5010008;28;20322;-72
2022/03/06 00:50:52;;;;;;;0.10;0.10;;;0.90;1.00;226.50;231333.00;;;;5014958;28;20258;-69
2022/03/06 00:53:20;;;;;;;0.10;0.10;;;0.90;1.00;226.50;231333.00;;;;5014338;28;20204;-70
2022/03/06 00:55:50;;;;;;;0.10;0.10;;;0.90;1.00;226.50;231333.00;;;;5014194;28;20592;-70
2022/03/06 00:58:18;;;;;;;0.10;0.10;;;0.90;1.00;226.50;231333.00;;;;5014053;28;20227;-69
2022/03/06 01:00:48;;;;;;;0.10;0.10;;;0.90;1.00;226.50;231333.00;;;;5014595;28;20191;-69
2022/03/06 01:03:21;;;;;;;0.10;0.10;;;0.90;1.00;226.50;231333.00;;;;5012713;28;20230;-69
2022/03/06 01:05:51;;;;;;;0.10;0.10;;;0.90;1.00;226.50;231333.00;;;;5013769;28;20202;-69
2022/03/06 01:08:19;;;;;;;0.10;0.10;;;0.90;1.00;226.50;231333.00;;;;5013638;28;20258;-70
2022/03/06 01:10:51;;;;;;;0.10;0.10;;;0.90;1.00;226.50;231333.00;;;;5013706;28;20192;-70
2022/03/06 01:13:22;;;;;;;0.10;0.10;;;0.90;1.00;226.50;231333.00;;;;5014157;28;20199;-71
2022/03/06 01:15:50;;;;;;;0.20;0.20;;;0.80;1.00;226.50;231333.00;;;;5013559;28;20192;-71
2022/03/06 01:18:20;;;;;;;0.10;0.10;;;0.80;1.00;226.50;231333.00;;;;5013859;28;20254;-70
2022/03/06 01:20:47;;;;;;;0.10;0.10;;;0.70;1.00;226.50;231333.00;;;;5013341;28;20250;-70
2022/03/06 01:23:17;;;;;;;0.10;0.10;;;0.50;99.90;226.50;231333.00;;;;5014011;28;20573;-70
2022/03/06 01:25:45;;;;;;;0.10;0.10;;;0.40;1.00;226.50;231333.00;;;;5014460;28;20250;-70
2022/03/06 01:28:13;;;;;;;0.10;0.10;;;0.40;1.00;226.50;231333.00;;;;5012784;28;20638;-70
2022/03/06 01:30:41;;;;;;;0.10;0.10;;;0.50;1.00;226.50;231333.00;;;;5013321;28;20597;-70
2022/03/06 01:33:09;;;;;;;0.10;0.10;;;0.50;1.00;226.50;231333.00;;;;5010411;28;20242;-70
2022/03/06 01:35:37;;;;;;;0.10;0.10;;;0.40;1.00;226.50;231333.00;;;;5012792;28;20204;-70
2022/03/06 01:38:05;;;;;;;0.10;0.10;;;0.40;1.00;226.50;231333.00;;;;5012914;28;20278;-70
2022/03/06 01:40:35;;;;;;;0.10;0.10;;;0.40;1.00;226.50;231333.00;;;;5012721;28;20653;-70
2022/03/06 01:43:03;;;;;;;0.10;0.10;;;0.40;48.00;226.50;231333.00;;;;5013247;28;20192;-70
2022/03/06 01:45:31;;;;;;;0.10;0.10;;;0.40;1.00;226.50;231333.00;;;;5005849;28;20196;-71
2022/03/06 01:48:03;;;;;;;0.10;0.10;;;0.50;1.00;226.50;231333.00;;;;5013465;28;20203;-70
2022/03/06 01:50:33;;;;;;;0.10;0.10;;;0.50;1.00;226.50;231333.00;;;;5013528;28;20535;-70
2022/03/06 01:53:05;;;;;;;0.10;0.10;;;0.50;1.00;226.50;231333.00;;;;5014129;28;20192;-70
2022/03/06 01:55:36;;;;;;;0.10;0.10;;;0.50;1.00;226.50;231333.00;;;;5013470;28;20257;-70
2022/03/06 01:58:08;;;;;;;0.10;0.10;;;0.50;1.00;226.50;231333.00;;;;5013830;28;20700;-70
2022/03/06 02:00:40;;;;;;;0.10;0.10;;;0.40;1.00;226.50;231333.00;;;;5020735;28;20204;-70
2022/03/06 02:03:08;;;;;;;0.10;0.10;;;0.50;1.00;226.50;231333.00;;;;5020167;28;20218;-70
2022/03/06 02:05:37;;;;;;;0.10;0.10;;;0.50;1.00;226.50;231333.00;;;;5020368;28;20588;-70
2022/03/06 02:08:06;;;;;;;0.10;0.10;;;0.50;1.00;226.50;231333.00;;;;5016302;28;20258;-70
2022/03/06 02:10:36;;;;;;;0.10;0.10;;;0.50;1.00;226.50;231333.00;;;;5018810;28;20196;-69
2022/03/06 02:13:05;;;;;;;0.10;0.10;;;0.50;1.00;226.50;231333.00;;;;5014116;28;20200;-69
2022/03/06 02:15:33;;;;;;;0.10;0.10;;;0.50;1.00;226.50;231333.00;;;;5009370;28;20261;-70
2022/03/06 02:18:02;;;;;;;0.10;0.10;;;0.40;1.00;226.50;231333.00;;;;5010477;28;20211;-69
2022/03/06 02:20:30;;;;;;;0.10;0.10;;;0.50;1.00;226.50;231333.00;;;;5012908;28;20230;-70
2022/03/06 02:23:00;;;;;;;0.10;0.10;;;0.50;1.00;226.50;231333.00;;;;5012731;28;20652;-69
2022/03/06 02:25:33;;;;;;;0.13;0.13;;;0.50;1.00;226.50;231333.00;;;;5012224;28;20191;-70
2022/03/06 02:28:05;;;;;;;0.10;0.10;;;0.50;1.00;226.50;231333.00;;;;5011577;28;20232;-69
2022/03/06 02:30:37;;;;;;;0.20;0.20;;;0.40;1.00;226.50;231333.00;;;;5011837;28;20219;-70
2022/03/06 02:33:08;;;;;;;0.17;0.17;;;0.40;1.00;226.50;231333.00;;;;5011002;28;20239;-70
2022/03/06 02:35:37;;;;;;;0.10;0.10;;;0.40;1.00;226.50;231333.00;;;;5009066;28;20208;-70
2022/03/06 02:38:08;;;;;;;0.13;0.13;;;0.40;1.00;226.50;231333.00;;;;5011992;28;20271;-70
2022/03/06 02:40:40;;;;;;;0.10;0.10;;;0.40;1.00;226.50;231333.00;;;;5012320;28;20629;-70
2022/03/06 02:43:10;;;;;;;0.20;0.20;;;0.50;1.00;226.50;231333.00;;;;5012088;28;20199;-70
2022/03/06 02:45:40;;;;;;;0.20;0.20;;;0.50;1.00;226.50;231333.00;;;;5011846;28;20243;-70
2022/03/06 02:48:10;;;;;;;0.13;0.13;;;0.40;1.00;226.50;231333.00;;;;5013004;28;20231;-70
2022/03/06 02:50:44;;;;;;;0.10;0.10;;;0.40;1.00;226.50;231333.00;;;;5011965;28;20225;-70
2022/03/06 02:53:13;;;;;;;0.10;0.10;;;0.30;1.00;226.50;231333.00;;;;5012511;28;20672;-70
2022/03/06 02:55:42;;;;;;;0.10;0.10;;;0.30;1.00;226.50;231333.00;;;;5007313;28;20223;-70
2022/03/06 02:58:10;;;;;;;0.10;0.10;;;0.20;19.10;226.50;231333.00;;;;5010762;28;20216;-70
2022/03/06 03:00:38;;;;;;;0.20;0.20;;;0.30;56.00;226.50;231333.00;;;;5009785;28;20269;-70
2022/03/06 03:03:06;;;;;;;0.10;0.10;;;0.20;22.40;226.50;231333.00;;;;5009498;28;21562;-70
2022/03/06 03:05:35;;;;;;;0.10;0.10;;;0.20;78.70;226.50;231333.00;;;;5011286;28;20600;-70
2022/03/06 03:08:03;;;;;;;0.10;0.10;;;0.30;40.40;226.50;231333.00;;;;5011465;28;20618;-70
2022/03/06 03:10:32;;;;;;;0.20;0.20;;;0.20;99.90;226.50;231333.00;;;;5008593;28;20216;-71
2022/03/06 03:13:00;;;;;;;0.10;0.10;;;0.20;99.90;226.50;231333.00;;;;5011098;28;20247;-71
2022/03/06 03:15:28;;;;;;;0.10;0.10;;;0.20;99.90;226.50;231333.00;;;;5011488;28;20254;-70
2022/03/06 03:17:56;;;;;;;0.10;0.10;;;0.20;99.90;226.50;231333.00;;;;5011434;28;20223;-71
2022/03/06 03:20:24;;;;;;;0.10;0.10;;;0.20;99.90;226.50;231333.00;;;;5011910;28;20192;-70
2022/03/06 03:22:52;;;;;;;0.10;0.10;;;0.20;99.90;226.50;231333.00;;;;5011639;28;20199;-71
2022/03/06 03:25:20;;;;;;;0.10;0.10;;;0.20;99.90;226.50;231333.00;;;;5011429;28;20191;-70
2022/03/06 03:27:49;;;;;;;0.10;0.10;;;0.20;99.90;226.50;231333.00;;;;5011400;28;20780;-71
2022/03/06 03:30:17;;;;;;;0.10;0.10;;;0.30;99.90;226.50;231333.00;;;;5011378;28;20215;-71
2022/03/06 03:32:45;;;;;;;0.10;0.10;;;0.30;99.90;226.50;231333.00;;;;5011731;28;20196;-72
2022/03/06 03:35:13;;;;;;;0.10;0.10;;;0.30;99.90;226.50;231333.00;;;;5010374;28;20200;-72
2022/03/06 03:37:41;;;;;;;0.13;0.13;;;0.30;99.90;226.50;231333.00;;;;5010885;28;20278;-69
2022/03/06 03:40:11;;;;;;;0.10;0.10;;;0.30;99.90;226.50;231333.00;;;;5011432;28;20239;-70
2022/03/06 03:42:39;;;;;;;0.10;0.10;;;0.30;99.90;226.50;231333.00;;;;5011065;28;20282;-70
2022/03/06 03:45:09;;;;;;;0.10;0.10;;;0.20;99.90;226.50;231333.00;;;;5011627;28;20195;-70
2022/03/06 03:47:38;;;;;;;0.10;0.10;;;0.20;99.90;226.50;231333.00;;;;5010823;28;20751;-71
2022/03/06 03:50:08;;;;;;;0.15;0.15;;;0.20;99.90;226.50;231333.00;;;;5011577;28;20241;-71
2022/03/06 03:52:36;;;;;;;0.10;0.10;;;0.20;99.90;226.50;231333.00;;;;5011299;28;20258;-71
2022/03/06 03:55:05;;;;;;;0.10;0.10;;;0.20;99.90;226.50;231333.00;;;;5011442;28;20200;-70
2022/03/06 03:57:33;;;;;;;0.10;0.10;;;0.20;1.00;226.50;231333.00;;;;5010647;28;20220;-70
2022/03/06 04:00:01;;;;;;;0.15;0.15;;;0.20;1.00;226.50;231333.00;;;;5011537;28;20211;-69
2022/03/06 04:02:35;;;;;;;0.10;0.10;;;0.20;99.90;226.50;231333.00;;;;5011345;28;20200;-72
2022/03/06 04:05:04;;;;;;;0.10;0.10;;;0.20;99.90;226.50;231333.00;;;;5011214;28;20557;-72
2022/03/06 04:07:32;;;;;;;0.10;0.10;;;0.20;99.90;226.50;231333.00;;;;5010141;28;20215;-71
2022/03/06 04:10:00;;;;;;;0.10;0.10;;;0.20;99.90;226.50;231333.00;;;;5010862;28;20746;-69
2022/03/06 04:12:28;;;;;;;0.10;0.10;;;0.10;99.90;226.50;231333.00;;;;5010749;28;20195;-69
2022/03/06 04:14:56;;;;;;;0.10;0.10;;;0.10;99.90;226.50;231333.00;;;;5010805;28;20250;-71
2022/03/06 04:17:24;;;;;;;0.10;0.10;;;0.10;99.90;226.50;231333.00;;;;5009302;28;20238;-71
2022/03/06 04:19:53;;;;;;;0.10;0.10;;;0.10;99.90;226.50;231333.00;;;;5010841;28;20665;-71
2022/03/06 04:22:21;;;;;;;0.10;0.10;;;0.00;99.90;226.50;231333.00;;;;5012186;28;20723;-69
2022/03/06 04:24:49;;;;;;;0.10;0.10;;;0.00;99.90;226.50;231333.00;;;;5012220;28;20199;-71
2022/03/06 04:27:17;;;;;;;0.10;0.10;;;0.00;99.90;226.50;231333.00;;;;5011563;28;20561;-72
2022/03/06 04:29:45;;;;;;;0.10;0.10;;;-0.10;99.90;226.50;231333.00;;;;5015650;28;20246;-73
2022/03/06 04:32:13;;;;;;;0.10;0.10;;;-0.20;99.90;226.50;231333.00;;;;5011231;28;20657;-72
2022/03/06 04:34:41;;;;;;;0.10;0.10;;;-0.20;1.00;226.50;231333.00;;;;5014408;28;20191;-72
2022/03/06 04:37:11;;;;;;;0.10;0.10;;;-0.20;1.00;226.50;231333.00;;;;5012899;28;20556;-72
2022/03/06 04:39:39;;;;;;;0.10;0.10;;;-0.20;1.00;226.50;231333.00;;;;5013931;28;20266;-72
2022/03/06 04:42:07;;;;;;;0.10;0.10;;;-0.20;1.00;226.50;231333.00;;;;5012914;28;20200;-72
2022/03/06 04:44:35;;;;;;;0.10;0.10;;;-0.20;1.00;226.50;231333.00;;;;5014270;28;20195;-72
2022/03/06 04:47:04;;;;;;;0.10;0.10;;;-0.20;1.00;226.50;231333.00;;;;5013147;28;20215;-72
2022/03/06 04:49:33;;;;;;;0.13;0.13;;;-0.20;1.00;226.50;231333.00;;;;5013834;28;20196;-72
2022/03/06 04:52:01;;;;;;;0.10;0.10;;;-0.30;1.00;226.50;231333.00;;;;5014477;28;20200;-72
2022/03/06 04:54:31;;;;;;;0.10;0.10;;;-0.30;1.00;226.50;231333.00;;;;5010196;28;20262;-73
2022/03/06 04:57:00;;;;;;;0.10;0.10;;;-0.30;1.00;226.50;231333.00;;;;5013794;28;20232;-72
2022/03/06 04:59:29;;;;;;;0.20;0.20;;;-0.20;1.00;226.50;231333.00;;;;5013920;28;20580;-73
2022/03/06 05:01:57;;;;;;;0.10;0.10;;;-0.20;1.00;226.50;231333.00;;;;5012713;28;20740;-72
2022/03/06 05:04:25;;;;;;;0.13;0.13;;;-0.10;1.00;226.50;231333.00;;;;5013655;28;20223;-72
2022/03/06 05:06:53;;;;;;;0.10;0.10;;;-0.10;1.00;226.50;231333.00;;;;5013824;28;20274;-72
2022/03/06 05:09:21;;;;;;;0.13;0.13;;;-0.10;1.00;226.50;231333.00;;;;5013455;28;20605;-69
2022/03/06 05:11:50;;;;;;;0.10;0.10;;;-0.10;1.00;226.50;231333.00;;;;5013928;28;20282;-69
2022/03/06 05:14:18;;;;;;;0.20;0.20;;;-0.10;1.00;226.50;231333.00;;;;5013408;28;20250;-69
2022/03/06 05:16:46;;;;;;;0.10;0.10;;;-0.10;1.00;226.50;231333.00;;;;5012873;28;20269;-69
2022/03/06 05:19:14;;;;;;;0.10;0.10;;;-0.20;1.00;226.50;231333.00;;;;5013732;28;20250;-69
2022/03/06 05:21:42;;;;;;;0.10;0.10;;;-0.20;1.00;226.50;231333.00;;;;5013590;28;20730;-69
2022/03/06 05:24:10;;;;;;;0.10;0.10;;;-0.20;1.00;226.50;231333.00;;;;5013573;28;20196;-70
2022/03/06 05:26:39;;;;;;;0.10;0.10;;;-0.30;1.00;226.50;231333.00;;;;5012844;28;20258;-70
2022/03/06 05:29:08;;;;;;;0.10;0.10;;;-0.30;1.00;226.50;231333.00;;;;5013294;28;20192;-71
2022/03/06 05:31:36;;;;;;;0.10;0.10;;;-0.30;1.00;226.50;231333.00;;;;5012610;28;20250;-70
2022/03/06 05:34:04;;;;;;;0.10;0.10;;;-0.30;1.00;226.50;231333.00;;;;5013400;28;20665;-70
2022/03/06 05:36:32;;;;;;;0.10;0.10;;;-0.30;1.00;226.50;231333.00;;;;5011298;28;20720;-70
2022/03/06 05:39:00;;;;;;;0.10;0.10;;;-0.40;1.00;226.50;231333.00;;;;5013193;28;20191;-70
2022/03/06 05:41:28;;;;;;;0.10;0.10;;;-0.30;1.00;226.50;231333.00;;;;5011673;28;20261;-73
2022/03/06 05:43:56;;;;;;;0.10;0.10;;;-0.40;1.00;226.50;231333.00;;;;5013374;28;20199;-72
2022/03/06 05:46:25;;;;;;;0.10;0.10;;;-0.40;96.00;226.50;231333.00;;;;5012854;28;20218;-72
2022/03/06 05:48:53;;;;;;;0.10;0.10;;;-0.20;99.90;226.50;231333.00;;;;5013636;28;20200;-71
2022/03/06 05:51:21;;;;;;;0.10;0.10;;;-0.20;99.90;226.50;231333.00;;;;5013559;28;20645;-69
2022/03/06 05:53:49;;;;;;;0.17;0.17;;;-0.20;99.90;226.50;231333.00;;;;5013087;28;20242;-69
2022/03/06 05:56:17;;;;;;;0.10;0.10;;;-0.20;99.90;226.50;231333.00;;;;5005437;28;20216;-69
2022/03/06 05:58:45;;;;;;;0.10;0.10;;;-0.10;99.90;226.50;231333.00;;;;5013134;28;20732;-69
2022/03/06 06:01:13;;;;;;;0.15;0.15;;;-0.10;99.90;226.50;231333.00;;;;5012547;28;20200;-70
2022/03/06 06:03:43;;;;;;;0.17;0.17;;;-0.10;16.00;226.50;231333.00;;;;5012717;28;20202;-69
2022/03/06 06:06:11;;;;;;;0.10;0.10;;;-0.10;1.00;226.50;231333.00;;;;5012787;28;20192;-69
2022/03/06 06:08:39;;;;;;;0.10;0.10;;;-0.10;14.20;226.50;231333.00;;;;5013082;28;20198;-70
2022/03/06 06:11:07;;;;;;;0.20;0.20;;;-0.10;54.30;226.50;231333.00;;;;5012865;28;20264;-69
2022/03/06 06:13:35;;;;;;;0.10;0.10;;;-0.10;9.50;226.50;231333.00;;;;5011301;28;20656;-70
2022/03/06 06:16:03;;;;;;;0.20;0.20;;;-0.10;1.00;226.50;231333.00;;;;5012891;28;20231;-71
2022/03/06 06:18:31;;;;;;;0.10;0.10;;;-0.10;1.00;226.50;231333.00;;;;5013169;28;20689;-73
2022/03/06 06:21:00;;;;;;;0.10;0.10;;;-0.10;1.00;226.50;231333.00;;;;5012738;28;20192;-72
2022/03/06 06:23:28;;;;;;;0.10;0.10;;;-0.10;1.00;226.50;231333.00;;;;5012830;28;20196;-70
2022/03/06 06:26:01;;;;;;;0.10;0.10;;;-0.10;1.00;226.50;231333.00;;;;5012679;28;20246;-71
2022/03/06 06:28:29;;;;;;;0.13;0.13;;;-0.10;1.00;226.50;231333.00;;;;5012639;28;20195;-71
2022/03/06 06:30:57;;;;;;;0.10;0.10;;;-0.10;1.00;226.50;231333.00;;;;5011757;28;20216;-71
2022/03/06 06:33:25;;;;;;;0.10;0.10;;;0.00;99.90;226.50;231333.00;;;;5011507;28;20227;-71
2022/03/06 06:35:53;;;;;;;0.10;0.10;;;0.00;99.90;226.50;231333.00;;;;5011169;28;20235;-70
2022/03/06 06:38:23;;;;;;;0.20;0.20;;;0.10;99.90;226.50;231333.00;;;;5007652;28;20627;-71
2022/03/06 06:40:52;;;;;;;0.10;0.10;;;0.00;45.20;226.50;231333.00;;;;5011980;28;20661;-70
2022/03/06 06:43:21;;;;;;;0.10;0.10;;;0.10;48.00;226.50;231333.00;;;;5012362;28;20203;-70
2022/03/06 06:45:49;;;;;;;0.10;0.10;;;0.10;1.00;226.50;231333.00;;;;5013847;28;20246;-71
2022/03/06 06:48:17;;;;;;;0.10;0.10;;;0.10;92.60;226.50;231333.00;;;;5014251;28;20196;-73
2022/03/06 06:50:45;;;;;;;0.10;0.10;;;0.20;1.00;226.50;231333.00;;;;5016462;28;20564;-69
2022/03/06 06:53:13;;;;;;;0.15;0.15;;;0.20;1.00;226.50;231333.00;;;;5016778;28;20199;-70
2022/03/06 06:55:42;;;;;;;0.10;0.10;;;0.30;1.00;226.50;231333.00;;;;5014368;28;20531;-72
2022/03/06 06:58:10;;;;;;;0.10;0.10;;;0.20;1.00;226.50;231333.00;;;;5013226;28;20640;-69
2022/03/06 07:00:39;;;;;;;0.10;0.10;;;0.30;1.00;226.50;231333.00;;;;5017586;28;20603;-69
2022/03/06 07:03:07;;;;;;;0.20;0.20;;;0.30;1.00;226.50;231333.00;;;;5015063;28;20188;-69
2022/03/06 07:05:35;;;;;;;0.10;0.10;;;0.30;1.00;226.50;231333.00;;;;5017013;28;20202;-71
2022/03/06 07:08:04;;;;;;;0.10;0.10;;;0.30;1.00;226.50;231333.00;;;;5010619;28;20247;-69
2022/03/06 07:10:32;;;;;;;0.15;0.15;;;0.30;1.00;226.50;231333.00;;;;5003416;28;20238;-70
2022/03/06 07:13:01;;;;;;;0.10;0.10;;;0.30;1.00;226.50;231333.00;;;;5005938;28;20227;-70
2022/03/06 07:15:32;;;;;;;0.10;0.10;;;0.30;1.00;226.50;231333.00;;;;5010850;28;20289;-69
2022/03/06 07:18:01;;;;;;;0.17;0.17;;;0.30;1.00;226.50;231333.00;;;;5010830;28;20216;-71
2022/03/06 07:20:30;;;;;;;0.10;0.10;;;0.30;1.00;226.50;231333.00;;;;5010258;28;20203;-71
2022/03/06 07:22:58;;;;;;;0.10;0.10;;;0.30;1.00;226.50;231333.00;;;;5011497;28;20215;-72
2022/03/06 07:25:26;;;;;;;0.10;0.10;;;0.30;1.00;226.50;231333.00;;;;5010418;28;20208;-72
2022/03/06 07:27:55;;;;;;;0.10;0.10;;;0.40;1.00;226.50;231333.00;;;;5008798;28;20238;-72
2022/03/06 07:30:25;;;;;;;0.10;0.10;;;0.40;1.00;226.50;231333.00;;;;5010527;28;20753;-72
2022/03/06 07:32:54;;;;;;;0.10;0.10;;;0.50;1.00;226.50;231333.00;;;;5011219;28;20215;-72
2022/03/06 07:35:23;;;;;;;0.20;0.20;;;0.50;1.00;226.50;231333.00;;;;5011278;28;20561;-72
2022/03/06 07:37:51;;;;;;;0.20;0.20;;;0.50;1.00;226.50;231333.00;;;;5010069;28;20212;-72
2022/03/06 07:40:21;;;;;;;0.20;0.20;;;0.50;1.00;226.50;231333.00;;;;5011962;28;20719;-72
2022/03/06 07:42:54;;;;;;;0.17;0.17;;;0.50;1.00;226.50;231333.00;;;;5011268;28;20207;-71
2022/03/06 07:45:22;;;;;;;0.13;0.13;;;0.50;1.00;226.50;231333.00;;;;5009727;28;20196;-72
2022/03/06 07:47:51;;;;;;;0.10;0.10;;;0.60;1.00;226.50;231333.00;;;;5011553;28;20604;-71
2022/03/06 07:50:20;;;;;;;0.10;0.10;;;0.50;1.00;226.50;231333.00;;;;5003803;28;20199;-72
2022/03/06 07:52:48;;;;;;;0.13;0.13;;;0.50;99.90;226.50;231333.00;;;;5005721;28;20231;-72
2022/03/06 07:55:16;;;;;;;0.10;0.10;;;0.60;1.00;226.50;231333.00;;;;5006135;28;20192;-71
2022/03/06 07:57:44;;;;;;;0.10;0.10;;;0.60;1.00;226.50;231333.00;;;;5002737;28;20273;-72
2022/03/06 08:00:13;;;;;;;0.10;0.10;;;0.60;99.90;226.50;231333.00;;;;5010967;28;20219;-72
2022/03/06 08:02:41;;;;;;;0.15;0.15;;;0.70;99.90;226.50;231333.00;;;;5005824;28;20603;-72
2022/03/06 08:05:11;;;;;;;0.13;0.13;;;0.70;99.90;226.50;231333.00;;;;5011099;28;20718;-72
2022/03/06 08:07:39;;;;;;;0.10;0.10;;;0.70;99.90;226.50;231333.00;;;;5010772;28;20253;-73
2022/03/06 08:10:09;;;;;;;0.10;0.10;;;0.70;99.90;226.50;231333.00;;;;5011560;28;20196;-73
2022/03/06 08:12:37;;;;;;;0.10;0.10;;;0.80;99.90;226.50;231333.00;;;;5010927;28;20224;-72
2022/03/06 08:15:07;;;;;;;0.10;0.10;;;0.80;99.90;226.50;231333.00;;;;5011328;28;20195;-71
2022/03/06 08:17:36;;;;;;;0.20;0.20;;;0.80;99.90;226.50;231333.00;;;;5010397;28;20219;-73
2022/03/06 08:20:05;;;;;;;0.15;0.15;;;0.80;99.90;226.50;231333.00;;;;4998613;28;20192;-72
2022/03/06 08:22:36;;;;;;;0.10;0.10;;;0.90;99.90;226.50;231333.00;;;;5001571;28;20204;-71
2022/03/06 08:25:06;;;;;;;0.10;0.10;;;1.00;99.90;226.50;231333.00;;;;5010578;28;20203;-71
2022/03/06 08:27:34;;;;;;;0.10;0.10;;;1.00;99.90;226.50;231333.00;;;;4997818;28;20227;-71
2022/03/06 08:30:04;;;;;;;0.15;0.15;;;1.00;99.90;226.50;231333.00;;;;5024988;28;20192;-73
2022/03/06 08:32:33;;;;;;;0.20;0.20;;;1.10;99.90;226.50;231333.00;;;;5001188;28;20238;-72
2022/03/06 08:35:01;;;;;;;0.10;0.10;;;1.10;99.90;226.50;231333.00;;;;5010703;28;20203;-71
2022/03/06 08:37:30;;;;;;;0.10;0.10;;;1.10;99.90;226.50;231333.00;;;;5009601;28;20223;-72
2022/03/06 08:39:59;;;;;;;0.10;0.10;;;1.20;93.40;226.50;231333.00;;;;5009941;28;20707;-72
2022/03/06 08:42:27;;;;;;;0.10;0.10;;;1.20;71.50;226.50;231333.00;;;;5010813;28;20685;-71
2022/03/06 08:44:55;;;;;;;0.10;0.10;;;1.30;1.00;226.50;231333.00;;;;5010149;28;20188;-72
2022/03/06 08:47:23;;;;;;;0.10;0.10;;;1.30;1.00;226.50;231333.00;;;;5010108;28;20712;-71
2022/03/06 08:49:51;;;;;;;0.20;0.20;;;1.30;1.00;226.50;231333.00;;;;5010083;28;20759;-74
2022/03/06 08:52:19;;;;;;;0.10;0.10;;;1.40;1.00;226.50;231333.00;;;;5006090;28;20208;-74
2022/03/06 08:54:47;;;;;;;0.10;0.10;;;1.40;1.00;226.50;231333.00;;;;5009484;28;20250;-71
2022/03/06 08:57:16;;;;;;;0.10;0.10;;;1.40;1.00;226.50;231333.00;;;;5009508;28;20211;-73
2022/03/06 08:59:44;;;;;;;0.10;0.10;;;1.40;1.00;226.50;231333.00;;;;5006646;28;20654;-72
2022/03/06 09:02:12;;;;;;;0.10;0.10;;;1.50;1.00;226.50;231333.00;;;;5010506;28;20216;-71
2022/03/06 09:04:40;;;;;;;0.10;0.10;;;1.60;1.00;226.50;231333.00;;;;5009888;28;20680;-71
2022/03/06 09:07:09;;;;;;;0.10;0.10;;;1.50;1.00;226.50;231333.00;;;;5010327;28;20216;-73
2022/03/06 09:09:37;;;;;;;0.10;0.10;;;1.50;1.00;226.50;231333.00;;;;5010040;28;20192;-71
2022/03/06 09:12:06;;;;;;;0.10;0.10;;;1.60;1.00;226.50;231333.00;;;;5014067;28;20564;-71
2022/03/06 09:14:35;;;;;;;0.10;0.10;;;1.60;1.00;226.50;231333.00;;;;5013462;28;20200;-73
2022/03/06 09:17:05;;;;;;;0.10;0.10;;;1.70;1.00;226.50;231333.00;;;;5013181;28;20274;-71
2022/03/06 09:19:33;;;;;;;0.10;0.10;;;1.80;99.90;226.50;231333.00;;;;5014300;28;20199;-72
2022/03/06 09:22:01;;;;;;;0.10;0.10;;;1.90;1.00;226.50;231333.00;;;;5010109;28;20731;-71
2022/03/06 09:24:28;;;;;;;0.10;0.10;;;1.80;1.00;226.50;231333.00;;;;5013622;28;20242;-71
2022/03/06 09:26:56;;;;;;;0.10;0.10;;;1.80;1.00;226.50;231333.00;;;;5013184;28;20238;-71
2022/03/06 09:29:24;;;;;;;0.10;0.10;;;1.90;1.00;226.50;231333.00;;;;5009811;28;20197;-71
2022/03/06 09:31:54;;;;;;;0.10;0.10;;;1.90;1.00;226.50;231333.00;;;;5013249;28;20207;-71
2022/03/06 09:34:22;;;;;;;0.10;0.10;;;2.00;99.90;226.50;231333.00;;;;5005780;28;20267;-72
2022/03/06 09:36:50;;;;;;;0.10;0.10;;;2.10;99.90;226.50;231333.00;;;;5012995;28;20262;-71
2022/03/06 09:39:18;;;;;;;0.10;0.10;;;2.20;99.90;226.50;231333.00;;;;5006150;28;20251;-71
2022/03/06 09:41:50;;;;;;;0.10;0.10;;;2.30;1.00;226.50;231333.00;;;;5012861;28;20262;-71
2022/03/06 09:44:18;;;;;;;0.10;0.10;;;2.40;1.00;226.50;231333.00;;;;5013891;28;20196;-71
2022/03/06 09:46:46;;;;;;;0.10;0.10;;;2.40;99.90;226.50;231333.00;;;;5012469;28;20204;-71
2022/03/06 09:49:17;;;;;;;0.10;0.10;;;2.50;99.90;226.50;231333.00;;;;5012431;28;20192;-71
2022/03/06 09:51:45;;;;;;;0.10;0.10;;;2.60;1.00;226.50;231333.00;;;;5008148;28;20214;-71
2022/03/06 09:54:16;;;;;;;0.10;0.10;;;2.60;99.90;226.50;231333.00;;;;5013306;28;20223;-71
2022/03/06 09:56:45;;;;;;;0.10;0.10;;;2.70;99.90;226.50;231333.00;;;;5010015;28;20270;-71
2022/03/06 09:59:13;;;;;;;0.10;0.10;;;2.80;1.00;226.50;231333.00;;;;5011237;28;20208;-71
2022/03/06 10:01:41;;;;;;;0.10;0.10;;;3.00;1.00;226.50;231333.00;;;;5013060;28;20199;-71
2022/03/06 10:04:25;;;;;;;0.10;0.10;;;3.10;99.90;226.50;231333.00;;;;5013258;28;20196;-71
2022/03/06 10:07:02;;;;;;;0.10;0.10;;;3.10;1.00;226.50;231333.00;;;;5011966;28;20700;-71
2022/03/06 10:09:31;;;;;;;0.10;0.10;;;3.20;1.00;226.50;231333.00;;;;5012893;28;20195;-71
2022/03/06 10:12:00;;;;;;;0.00;0.00;;;3.40;1.00;226.50;231333.00;;;;5013258;28;20677;-71
2022/03/06 10:14:41;;;;;;;0.10;0.10;;;3.40;1.00;226.50;231333.00;;;;5012357;28;20256;-71
2022/03/06 10:17:12;;;;;;;0.10;0.10;;;3.50;1.00;226.50;231333.00;;;;5010023;28;20211;-71
2022/03/06 10:19:57;;;;;;;0.10;0.10;;;3.50;1.00;226.50;231333.00;;;;5014300;28;20192;-71
2022/03/06 10:22:28;;;;;;;0.10;0.10;;;3.50;1.00;226.50;231333.00;;;;5017573;28;20246;-71
2022/03/06 10:24:59;;;;;;;0.10;0.10;;;3.60;1.00;226.50;231333.00;;;;5010540;28;20211;-71
2022/03/06 10:27:47;;;;;;;0.10;0.10;;;3.70;99.90;226.50;231333.00;;;;5017827;28;20282;-71
2022/03/06 10:30:31;;;;;;;0.10;0.10;;;3.80;99.90;226.50;231333.00;;;;5015937;28;20226;-70
2022/03/06 10:33:03;;;;;;;0.10;0.10;;;3.90;99.90;226.50;231333.00;;;;5014875;28;20259;-71
2022/03/06 10:35:39;;;;;;;0.10;0.10;;;3.90;99.90;226.50;231333.00;;;;5012680;28;20188;-71
2022/03/06 10:38:23;;;;;;;0.08;0.08;;;3.90;99.90;226.50;231333.00;;;;5011476;28;20211;-71
2022/03/06 10:40:52;;;;;;;0.08;0.08;;;4.00;99.90;226.50;231333.00;;;;5011035;28;20265;-71
2022/03/06 10:43:22;;;;;;;0.10;0.10;;;4.00;99.90;226.50;231333.00;;;;5011201;28;20196;-72
2022/03/06 10:46:04;;;;;;;0.10;0.10;;;3.90;99.90;226.50;231333.00;;;;5007741;28;20211;-71
2022/03/06 10:48:33;;;;;;;0.10;0.10;;;3.90;99.90;226.50;231333.00;;;;5010691;28;20196;-71
2022/03/06 10:51:05;;;;;;;0.10;0.10;;;3.90;99.90;226.50;231333.00;;;;5012541;28;20216;-71
2022/03/06 10:53:33;;;;;;;0.10;0.10;;;3.80;99.90;226.50;231333.00;;;;5012161;28;20266;-71
2022/03/06 10:56:09;;;;;;;0.10;0.10;;;3.70;99.90;226.50;231333.00;;;;5011758;28;20203;-71
2022/03/06 10:58:39;;;;;;;0.00;0.00;;;3.70;99.90;226.50;231333.00;;;;5005984;28;20200;-71